Anita, Iowa
Current Conditions -  °F | °C
As of 3:55 PM on Monday 20 Oct 2014 (Local Time) from KAIO Reporting Station
Clear Clear  
Wind Chill: 70°   Ceiling: Unl
Heat Index: 70°   Visibility: 10mi
Dew Point: 41°   Wind: 9mph
Humidity: 35%   Direction: 320°NW
Pressure: 30.02"   Gusts: 17mph
Location:  41.45°N, 94.76°W
Report Text: KAIO 202055Z AUTO 32008G15KT 280V350 10SM CLR 21/05 A3002 RMK AO2
Loading
Personal Weather Stations






























Interactive Weather Map
Tropical Storm Tracking
New forecast layout! Learn more

10-Day Weather Forecast

Advertisements
Track Severe Weather on mobile